Nadi, Fiji

6:08 PM FJT on August 31, 2016 (GMT +1200)
Nadi International | | Change Station

Elev 59 ft 17.76 °S, 177.44 °E | Updated 8 minutes ago

Light Rain Showers
Light Showers Rain
75 °F
Feels Like 75 °F
N
10
Wind Variable Wind from ESE

Today
High -- | Low -- °F
--% Chance of Precip.
Yesterday
High -- | Low -- °F
Precip. -- in
Pressure 29.95 in
Visibility 6.2 miles
Clouds Few 900 ft
Scattered Clouds 2600 ft
Mostly Cloudy 4600 ft
Dew Point 70 °F
Humidity 83%
Rainfall 0.00 in
Snow Depth Not available.
6:18 AM 6:03 PM
Waning Crescent, 1% visible
METAR NFFN 310600Z 12009KT 9999 -SHRA FEW009 SCT026 BKN046 24/21 Q1014 NOSIG
Pressure 29.95 in
Visibility 6.2 miles
Clouds Few 900 ft
Scattered Clouds 2600 ft
Mostly Cloudy 4600 ft
Dew Point 70 °F
Humidity 83%
Rainfall 0.00 in
Snow Depth Not available.
6:18 AM 6:03 PM
Waning Crescent, 1% visible
METAR NFFN 310600Z 12009KT 9999 -SHRA FEW009 SCT026 BKN046 24/21 Q1014 NOSIG

10-Day Weather Forecast

No radar image for this location.
×

Almanac

Astronomy

Aug. 31, 2016 Rise Set
Actual Time
Civil Twilight
Nautical Twilight
Astronomical Twilight
Moon
Length of Visible Light
Length of Day
Tomorrow will be .
, % of the Moon is Illuminated

Today's Extremes

Country Highs Country Lows

Community

WunderPhotos

Upload Photos

1,936,040 photos uploaded!

WunderBlog® & News

Nearby

Air Quality

  Air Quality AQ Index Pollutant
Not available.

Snow Depth

Station Depth Elevation

Earthquake Activity

City Distance Mag. Time & Date
Minimum magnitude displayed is 2.5.

Coastal Water Temperatures

Place Temperature

Stations

Nearby Weather Stations

Station Location Temp. Windchill Dew Point Humidity Wind Precip. Elev Updated Type